Time,TemperatureF,DewpointF,PressureIn,WindDirection,WindDirectionDegrees,WindSpeedMPH,WindSpeedGustMPH,Humidity,HourlyPrecipIn,Conditions,Clouds,dailyrainin,SoftwareType,DateUTC
2013-01-19 00:09:00,38.3,27.0,30.04,SW,228,3.0,14.0,65,0.00,,,0.00,weatherlink.com 1.10,2013-01-19 05:09:00,
2013-01-19 00:25:00,38.2,27.0,30.04,WNW,290,3.0,14.0,65,0.00,,,0.00,weatherlink.com 1.10,2013-01-19 05:25:00,
2013-01-19 00:40:00,38.0,27.0,30.04,SSW,205,7.0,12.0,66,0.00,,,0.00,weatherlink.com 1.10,2013-01-19 05:40:00,
2013-01-19 00:55:00,38.0,27.0,30.04,South,190,3.0,13.0,66,0.00,,,0.00,weatherlink.com 1.10,2013-01-19 05:55:00,
2013-01-19 01:10:00,38.4,28.0,30.04,SSW,209,5.0,11.0,66,0.00,,,0.00,weatherlink.com 1.10,2013-01-19 06:10:00,
2013-01-19 01:25:00,38.6,28.0,30.03,South,190,6.0,11.0,65,0.00,,,0.00,weatherlink.com 1.10,2013-01-19 06:25:00,
2013-01-19 01:40:00,38.8,28.0,30.02,WSW,254,4.0,14.0,65,0.00,,,0.00,weatherlink.com 1.10,2013-01-19 06:40:00,
2013-01-19 01:55:00,38.8,28.0,30.03,SSW,200,4.0,16.0,65,0.00,,,0.00,weatherlink.com 1.10,2013-01-19 06:55:00,
2013-01-19 02:10:00,39.2,28.0,30.02,South,180,4.0,17.0,65,0.00,,,0.00,weatherlink.com 1.10,2013-01-19 07:10:00,
2013-01-19 02:25:00,39.4,28.0,30.03,NW,316,4.0,14.0,64,0.00,,,0.00,weatherlink.com 1.10,2013-01-19 07:25:00,
2013-01-19 02:40:00,39.4,28.0,30.03,SW,228,4.0,13.0,64,0.00,,,0.00,weatherlink.com 1.10,2013-01-19 07:40:00,
2013-01-19 02:55:00,39.2,28.0,30.03,South,188,9.0,14.0,65,0.00,,,0.00,weatherlink.com 1.10,2013-01-19 07:55:00,
2013-01-19 03:10:00,39.1,28.0,30.03,WSW,240,3.0,13.0,65,0.00,,,0.00,weatherlink.com 1.10,2013-01-19 08:10:00,
2013-01-19 03:25:00,39.0,28.0,30.03,WSW,243,2.0,13.0,66,0.00,,,0.00,weatherlink.com 1.10,2013-01-19 08:25:00,
2013-01-19 03:40:00,38.7,29.0,30.03,SSW,211,4.0,14.0,67,0.00,,,0.00,weatherlink.com 1.10,2013-01-19 08:40:00,
2013-01-19 03:55:00,38.7,29.0,30.02,South,184,4.0,15.0,67,0.00,,,0.00,weatherlink.com 1.10,2013-01-19 08:55:00,
2013-01-19 04:10:00,38.5,29.0,30.02,SW,221,8.0,12.0,68,0.00,,,0.00,weatherlink.com 1.10,2013-01-19 09:10:00,
2013-01-19 04:25:00,38.5,29.0,30.02,SW,222,6.0,16.0,68,0.00,,,0.00,weatherlink.com 1.10,2013-01-19 09:25:00,
2013-01-19 04:40:00,38.3,29.0,30.01,West,273,3.0,12.0,68,0.00,,,0.00,weatherlink.com 1.10,2013-01-19 09:40:00,
2013-01-19 04:55:00,38.3,29.0,30.01,WSW,242,2.0,12.0,69,0.00,,,0.00,weatherlink.com 1.10,2013-01-19 09:55:00,
2013-01-19 05:10:00,38.2,29.0,30.01,West,263,2.0,14.0,69,0.00,,,0.00,weatherlink.com 1.10,2013-01-19 10:10:00,
2013-01-19 05:25:00,38.0,29.0,30.01,SE,137,4.0,13.0,70,0.00,,,0.00,weatherlink.com 1.10,2013-01-19 10:25:00,
2013-01-19 05:40:00,37.8,29.0,30.01,WSW,247,9.0,10.0,70,0.00,,,0.00,weatherlink.com 1.10,2013-01-19 10:40:00,
2013-01-19 05:55:00,37.7,29.0,30.01,SSW,204,2.0,13.0,71,0.00,,,0.00,weatherlink.com 1.10,2013-01-19 10:55:00,
2013-01-19 06:10:00,37.5,29.0,30.01,South,171,9.0,11.0,71,0.00,,,0.00,weatherlink.com 1.10,2013-01-19 11:10:00,
2013-01-19 07:55:00,37.1,30.0,29.99,SSW,200,5.0,11.0,74,0.00,,,0.00,weatherlink.com 1.10,2013-01-19 12:55:00,
2013-01-19 08:11:00,37.0,29.0,29.99,SSW,196,1.0,11.0,74,0.00,,,0.00,weatherlink.com 1.10,2013-01-19 13:11:00,
2013-01-19 08:26:00,37.2,30.0,29.99,South,185,6.0,10.0,74,0.00,,,0.00,weatherlink.com 1.10,2013-01-19 13:26:00,
2013-01-19 08:41:00,37.6,30.0,29.99,SW,220,2.0,9.0,74,0.00,,,0.00,weatherlink.com 1.10,2013-01-19 13:41:00,
2013-01-19 08:56:00,38.0,30.0,29.99,SSW,207,10.0,13.0,73,0.00,,,0.00,weatherlink.com 1.10,2013-01-19 13:56:00,
2013-01-19 09:11:00,38.4,30.0,29.99,SSW,200,4.0,13.0,72,0.00,,,0.00,weatherlink.com 1.10,2013-01-19 14:11:00,
2013-01-19 09:26:00,39.1,30.0,29.99,SW,217,9.0,16.0,71,0.00,,,0.00,weatherlink.com 1.10,2013-01-19 14:26:00,
2013-01-19 09:41:00,39.9,31.0,29.99,South,175,1.0,11.0,70,0.00,,,0.00,weatherlink.com 1.10,2013-01-19 14:41:00,
2013-01-19 09:56:00,40.5,31.0,29.99,SSW,196,9.0,11.0,69,0.00,,,0.00,weatherlink.com 1.10,2013-01-19 14:56:00,
2013-01-19 10:11:00,41.4,32.0,29.99,SW,222,1.0,9.0,68,0.00,,,0.00,weatherlink.com 1.10,2013-01-19 15:11:00,
2013-01-19 10:26:00,41.9,31.0,29.98,SW,227,2.0,17.0,66,0.00,,,0.00,weatherlink.com 1.10,2013-01-19 15:26:00,
2013-01-19 10:41:00,42.8,32.0,29.98,SW,228,5.0,11.0,65,0.00,,,0.00,weatherlink.com 1.10,2013-01-19 15:41:00,
2013-01-19 10:56:00,43.5,32.0,29.98,WSW,248,7.0,14.0,63,0.00,,,0.00,weatherlink.com 1.10,2013-01-19 15:56:00,
2013-01-19 11:11:00,44.0,32.0,29.97,SW,221,3.0,15.0,63,0.00,,,0.00,weatherlink.com 1.10,2013-01-19 16:11:00,
2013-01-19 11:26:00,44.6,32.0,29.96,West,261,5.0,14.0,62,0.00,,,0.00,weatherlink.com 1.10,2013-01-19 16:26:00,
2013-01-19 11:41:00,44.7,32.0,29.95,SSW,192,15.0,17.0,62,0.00,,,0.00,weatherlink.com 1.10,2013-01-19 16:41:00,
2013-01-19 11:56:00,45.5,33.0,29.93,SW,234,4.0,13.0,61,0.00,,,0.00,weatherlink.com 1.10,2013-01-19 16:56:00,
2013-01-19 12:41:00,47.6,34.0,29.89,ESE,113,4.0,15.0,60,0.00,,,0.00,weatherlink.com 1.10,2013-01-19 17:41:00,
2013-01-19 13:26:00,47.9,34.0,29.86,South,187,11.0,19.0,59,0.00,,,0.00,weatherlink.com 1.10,2013-01-19 18:26:00,
2013-01-19 13:41:00,48.5,35.0,29.85,SW,227,1.0,12.0,59,0.00,,,0.00,weatherlink.com 1.10,2013-01-19 18:41:00,
2013-01-19 13:56:00,47.8,34.0,29.85,SSW,206,6.0,17.0,59,0.00,,,0.00,weatherlink.com 1.10,2013-01-19 18:56:00,
2013-01-19 14:11:00,48.3,35.0,29.83,SW,236,6.0,18.0,60,0.00,,,0.00,weatherlink.com 1.10,2013-01-19 19:11:00,
2013-01-19 14:26:00,48.3,34.0,29.83,SSW,200,7.0,18.0,59,0.00,,,0.00,weatherlink.com 1.10,2013-01-19 19:26:00,
2013-01-19 15:12:00,49.3,35.0,29.81,SSW,196,5.0,17.0,59,0.00,,,0.00,weatherlink.com 1.10,2013-01-19 20:12:00,
2013-01-19 15:27:00,49.0,35.0,29.80,West,259,14.0,20.0,59,0.00,,,0.00,weatherlink.com 1.10,2013-01-19 20:27:00,
2013-01-19 15:57:00,48.0,35.0,29.79,South,180,9.0,15.0,62,0.00,,,0.00,weatherlink.com 1.10,2013-01-19 20:57:00,
2013-01-19 16:27:00,47.5,35.0,29.79,SSE,150,2.0,14.0,63,0.00,,,0.00,weatherlink.com 1.10,2013-01-19 21:27:00,
2013-01-19 16:57:00,47.0,35.0,29.79,SW,232,5.0,13.0,64,0.00,,,0.00,weatherlink.com 1.10,2013-01-19 21:57:00,
2013-01-19 17:12:00,46.8,35.0,29.80,South,170,8.0,14.0,64,0.00,,,0.00,weatherlink.com 1.10,2013-01-19 22:12:00,
2013-01-19 17:42:00,46.3,35.0,29.78,West,262,2.0,13.0,65,0.00,,,0.00,weatherlink.com 1.10,2013-01-19 22:42:00,
2013-01-19 17:57:00,46.0,36.0,29.78,SSW,196,8.0,13.0,67,0.00,,,0.00,weatherlink.com 1.10,2013-01-19 22:57:00,
2013-01-19 18:12:00,45.5,35.0,29.79,South,173,5.0,11.0,68,0.00,,,0.00,weatherlink.com 1.10,2013-01-19 23:12:00,
2013-01-19 18:57:00,44.6,35.0,29.79,WSW,250,5.0,11.0,70,0.00,,,0.00,weatherlink.com 1.10,2013-01-19 23:57:00,
2013-01-19 19:12:00,44.4,36.0,29.78,SSW,200,5.0,13.0,71,0.00,,,0.00,weatherlink.com 1.10,2013-01-20 00:12:00,
2013-01-19 19:27:00,44.3,36.0,29.78,SW,221,2.0,13.0,72,0.00,,,0.00,weatherlink.com 1.10,2013-01-20 00:27:00,
2013-01-19 19:42:00,44.2,36.0,29.78,SW,222,8.0,14.0,72,0.00,,,0.00,weatherlink.com 1.10,2013-01-20 00:42:00,
2013-01-19 19:57:00,44.2,36.0,29.78,West,276,9.0,15.0,73,0.00,,,0.00,weatherlink.com 1.10,2013-01-20 00:57:00,
2013-01-19 20:27:00,44.1,36.0,29.77,West,270,3.0,12.0,74,0.00,,,0.00,weatherlink.com 1.10,2013-01-20 01:27:00,
2013-01-19 20:42:00,44.0,36.0,29.77,South,180,5.0,16.0,74,0.00,,,0.00,weatherlink.com 1.10,2013-01-20 01:42:00,
2013-01-19 20:57:00,43.9,36.0,29.76,SSW,203,3.0,15.0,75,0.00,,,0.00,weatherlink.com 1.10,2013-01-20 01:57:00,
2013-01-19 21:12:00,43.8,36.0,29.76,WSW,254,7.0,15.0,75,0.00,,,0.00,weatherlink.com 1.10,2013-01-20 02:12:00,
2013-01-19 21:27:00,43.9,37.0,29.76,WSW,253,3.0,15.0,76,0.00,,,0.00,weatherlink.com 1.10,2013-01-20 02:27:00,
2013-01-19 21:42:00,44.1,37.0,29.75,SSW,195,4.0,17.0,77,0.00,,,0.00,weatherlink.com 1.10,2013-01-20 02:42:00,
2013-01-19 21:57:00,43.8,37.0,29.76,WSW,244,5.0,12.0,77,0.00,,,0.00,weatherlink.com 1.10,2013-01-20 02:57:00,
2013-01-19 22:12:00,44.1,37.0,29.75,WSW,243,3.0,16.0,76,0.00,,,0.00,weatherlink.com 1.10,2013-01-20 03:12:00,
2013-01-19 22:27:00,43.7,37.0,29.75,West,273,2.0,16.0,76,0.00,,,0.00,weatherlink.com 1.10,2013-01-20 03:27:00,
2013-01-19 23:28:00,41.7,35.0,29.75,West,269,9.0,12.0,78,0.00,,,0.00,weatherlink.com 1.10,2013-01-20 04:28:00,
2013-01-19 23:42:00,41.9,35.0,29.75,West,275,3.0,11.0,77,0.00,,,0.00,weatherlink.com 1.10,2013-01-20 04:42:00,
2013-01-19 23:57:00,41.7,35.0,29.75,West,278,9.0,14.0,76,0.00,,,0.00,weatherlink.com 1.10,2013-01-20 04:57:00,